Time,TemperatureF,DewpointF,PressureIn,WindDirection,WindDirectionDegrees,WindSpeedMPH,WindSpeedGustMPH,Humidity,HourlyPrecipIn,Conditions,Clouds,dailyrainin,SoftwareType,DateUTC
2013-08-31 00:10:00,63.3,59.0,29.87,SW,224,6.0,-999.0,86,-99.99,,,0.00,weatherlink.com 1.10,2013-08-31 04:10:00,
2013-08-31 00:25:00,63.3,59.0,29.86,SW,214,6.0,-999.0,87,-99.99,,,0.00,weatherlink.com 1.10,2013-08-31 04:25:00,
2013-08-31 00:40:00,63.3,59.0,29.86,SW,220,7.0,-999.0,86,-99.99,,,0.00,weatherlink.com 1.10,2013-08-31 04:40:00,
2013-08-31 00:55:00,63.2,59.0,29.85,SW,215,6.0,-999.0,85,-99.99,,,0.00,weatherlink.com 1.10,2013-08-31 04:55:00,
2013-08-31 01:10:00,63.1,58.0,29.85,SSW,207,5.0,-999.0,84,-99.99,,,0.00,weatherlink.com 1.10,2013-08-31 05:10:00,
2013-08-31 01:25:00,63.1,58.0,29.85,SW,219,5.0,-999.0,83,-99.99,,,0.00,weatherlink.com 1.10,2013-08-31 05:25:00,
2013-08-31 01:40:00,63.0,58.0,29.84,SW,219,6.0,-999.0,84,-99.99,,,0.00,weatherlink.com 1.10,2013-08-31 05:40:00,
2013-08-31 01:55:00,62.9,57.0,29.84,SW,230,2.0,-999.0,82,-99.99,,,0.00,weatherlink.com 1.10,2013-08-31 05:55:00,
2013-08-31 02:10:00,62.8,57.0,29.84,SW,217,5.0,-999.0,81,-99.99,,,0.00,weatherlink.com 1.10,2013-08-31 06:10:00,
2013-08-31 02:25:00,62.8,56.0,29.83,SW,221,5.0,-999.0,79,-99.99,,,0.00,weatherlink.com 1.10,2013-08-31 06:25:00,
2013-08-31 02:40:00,62.2,56.0,29.83,SSW,213,7.0,-999.0,81,-99.99,,,0.00,weatherlink.com 1.10,2013-08-31 06:40:00,
2013-08-31 02:55:00,62.0,56.0,29.83,SW,229,6.0,-999.0,80,-99.99,,,0.00,weatherlink.com 1.10,2013-08-31 06:55:00,
2013-08-31 03:11:00,61.9,55.0,29.83,SW,215,8.0,-999.0,79,-99.99,,,0.00,weatherlink.com 1.10,2013-08-31 07:11:00,
2013-08-31 03:26:00,61.6,55.0,29.83,SW,228,4.0,-999.0,79,-99.99,,,0.00,weatherlink.com 1.10,2013-08-31 07:26:00,
2013-08-31 03:41:00,61.3,55.0,29.83,WSW,248,11.0,-999.0,80,-99.99,,,0.00,weatherlink.com 1.10,2013-08-31 07:41:00,
2013-08-31 03:56:00,60.9,55.0,29.83,SW,219,7.0,-999.0,82,-99.99,,,0.00,weatherlink.com 1.10,2013-08-31 07:56:00,
2013-08-31 04:11:00,60.6,56.0,29.83,SW,228,7.0,-999.0,84,-99.99,,,0.00,weatherlink.com 1.10,2013-08-31 08:11:00,
2013-08-31 04:26:00,60.4,57.0,29.83,SW,234,6.0,-999.0,87,-99.99,,,0.00,weatherlink.com 1.10,2013-08-31 08:26:00,
2013-08-31 04:41:00,60.5,57.0,29.83,WSW,248,7.0,-999.0,89,-99.99,,,0.00,weatherlink.com 1.10,2013-08-31 08:41:00,
2013-08-31 04:56:00,60.6,57.0,29.83,SW,234,8.0,-999.0,87,-99.99,,,0.00,weatherlink.com 1.10,2013-08-31 08:56:00,
2013-08-31 05:11:00,60.7,57.0,29.82,WSW,250,7.0,-999.0,87,-99.99,,,0.00,weatherlink.com 1.10,2013-08-31 09:11:00,
2013-08-31 05:26:00,60.6,56.0,29.82,WSW,238,7.0,-999.0,85,-99.99,,,0.00,weatherlink.com 1.10,2013-08-31 09:26:00,
2013-08-31 05:41:00,60.8,55.0,29.81,SW,234,9.0,-999.0,82,-99.99,,,0.00,weatherlink.com 1.10,2013-08-31 09:41:00,
2013-08-31 05:56:00,60.7,56.0,29.81,SW,227,8.0,-999.0,83,-99.99,,,0.00,weatherlink.com 1.10,2013-08-31 09:56:00,
2013-08-31 06:11:00,60.6,56.0,29.81,WSW,239,10.0,-999.0,84,-99.99,,,0.00,weatherlink.com 1.10,2013-08-31 10:11:00,
2013-08-31 06:26:00,60.2,55.0,29.81,SSW,208,9.0,-999.0,84,-99.99,,,0.00,weatherlink.com 1.10,2013-08-31 10:26:00,
2013-08-31 06:41:00,60.2,55.0,29.82,SW,228,8.0,-999.0,83,-99.99,,,0.00,weatherlink.com 1.10,2013-08-31 10:41:00,
2013-08-31 06:56:00,60.4,55.0,29.82,WSW,253,10.0,-999.0,83,-99.99,,,0.00,weatherlink.com 1.10,2013-08-31 10:56:00,
2013-08-31 07:11:00,60.4,56.0,29.82,SW,227,10.0,-999.0,85,-99.99,,,0.00,weatherlink.com 1.10,2013-08-31 11:11:00,
2013-08-31 07:26:00,60.5,56.0,29.83,West,278,12.0,-999.0,84,-99.99,,,0.00,weatherlink.com 1.10,2013-08-31 11:26:00,
2013-08-31 07:41:00,60.8,55.0,29.83,SW,228,11.0,-999.0,82,-99.99,,,0.00,weatherlink.com 1.10,2013-08-31 11:41:00,
2013-08-31 07:56:00,61.1,55.0,29.84,SW,227,8.0,-999.0,79,-99.99,,,0.00,weatherlink.com 1.10,2013-08-31 11:56:00,
2013-08-31 08:11:00,61.2,55.0,29.84,West,261,8.0,-999.0,79,-99.99,,,0.00,weatherlink.com 1.10,2013-08-31 12:11:00,
2013-08-31 08:26:00,61.5,55.0,29.84,WSW,257,11.0,-999.0,78,-99.99,,,0.00,weatherlink.com 1.10,2013-08-31 12:26:00,
2013-08-31 08:41:00,61.6,55.0,29.84,SW,235,5.0,-999.0,78,-99.99,,,0.00,weatherlink.com 1.10,2013-08-31 12:41:00,
2013-08-31 08:56:00,61.8,55.0,29.84,WSW,242,12.0,-999.0,78,-99.99,,,0.00,weatherlink.com 1.10,2013-08-31 12:56:00,
2013-08-31 09:11:00,62.2,55.0,29.84,SW,223,10.0,-999.0,76,-99.99,,,0.00,weatherlink.com 1.10,2013-08-31 13:11:00,
2013-08-31 09:26:00,62.8,55.0,29.84,WSW,246,8.0,-999.0,76,-99.99,,,0.00,weatherlink.com 1.10,2013-08-31 13:26:00,
2013-08-31 09:41:00,63.1,57.0,29.84,WSW,254,13.0,-999.0,79,-99.99,,,0.00,weatherlink.com 1.10,2013-08-31 13:41:00,
2013-08-31 09:56:00,63.8,60.0,29.85,WSW,237,9.0,-999.0,88,-99.99,,,0.00,weatherlink.com 1.10,2013-08-31 13:56:00,
2013-08-31 10:11:00,63.6,61.0,29.84,WSW,237,19.0,-999.0,91,-99.99,,,0.00,weatherlink.com 1.10,2013-08-31 14:11:00,
2013-08-31 10:26:00,64.0,62.0,29.84,SW,225,12.0,-999.0,93,-99.99,,,0.00,weatherlink.com 1.10,2013-08-31 14:26:00,
2013-08-31 10:41:00,65.0,63.0,29.83,West,281,11.0,-999.0,93,-99.99,,,0.00,weatherlink.com 1.10,2013-08-31 14:41:00,
2013-08-31 10:56:00,64.6,63.0,29.83,SW,221,10.0,-999.0,93,-99.99,,,0.00,weatherlink.com 1.10,2013-08-31 14:56:00,
2013-08-31 11:11:00,65.3,63.0,29.83,SW,225,12.0,-999.0,93,-99.99,,,0.00,weatherlink.com 1.10,2013-08-31 15:11:00,
2013-08-31 11:26:00,66.4,62.0,29.83,WSW,244,7.0,-999.0,85,-99.99,,,0.00,weatherlink.com 1.10,2013-08-31 15:26:00,
2013-08-31 11:41:00,69.7,61.0,29.82,WSW,244,2.0,-999.0,75,-99.99,,,0.00,weatherlink.com 1.10,2013-08-31 15:41:00,
2013-08-31 11:56:00,72.7,60.0,29.82,SW,224,7.0,-999.0,64,-99.99,,,0.00,weatherlink.com 1.10,2013-08-31 15:56:00,
2013-08-31 12:12:00,73.5,61.0,29.82,SW,226,8.0,-999.0,64,-99.99,,,0.00,weatherlink.com 1.10,2013-08-31 16:12:00,
2013-08-31 12:27:00,71.0,62.0,29.83,SW,226,6.0,-999.0,72,-99.99,,,0.00,weatherlink.com 1.10,2013-08-31 16:27:00,
2013-08-31 12:42:00,69.8,58.0,29.83,WSW,255,11.0,-999.0,67,-99.99,,,0.00,weatherlink.com 1.10,2013-08-31 16:42:00,
2013-08-31 12:57:00,71.7,59.0,29.84,WSW,246,11.0,-999.0,64,-99.99,,,0.00,weatherlink.com 1.10,2013-08-31 16:57:00,
2013-08-31 13:12:00,71.9,59.0,29.84,West,269,6.0,-999.0,65,-99.99,,,0.00,weatherlink.com 1.10,2013-08-31 17:12:00,
2013-08-31 13:27:00,71.4,59.0,29.84,WSW,241,9.0,-999.0,66,-99.99,,,0.00,weatherlink.com 1.10,2013-08-31 17:27:00,
2013-08-31 13:42:00,70.9,61.0,29.83,WSW,251,7.0,-999.0,70,-99.99,,,0.00,weatherlink.com 1.10,2013-08-31 17:42:00,
2013-08-31 13:57:00,72.8,62.0,29.84,West,276,9.0,-999.0,70,-99.99,,,0.00,weatherlink.com 1.10,2013-08-31 17:57:00,
2013-08-31 14:12:00,71.9,62.0,29.83,WNW,290,7.0,-999.0,71,-99.99,,,0.00,weatherlink.com 1.10,2013-08-31 18:12:00,
2013-08-31 14:27:00,71.1,63.0,29.83,WSW,246,7.0,-999.0,75,-99.99,,,0.00,weatherlink.com 1.10,2013-08-31 18:27:00,
2013-08-31 14:42:00,71.6,63.0,29.82,WSW,257,6.0,-999.0,73,-99.99,,,0.00,weatherlink.com 1.10,2013-08-31 18:42:00,
2013-08-31 14:57:00,70.1,63.0,29.82,SW,236,5.0,-999.0,78,-99.99,,,0.00,weatherlink.com 1.10,2013-08-31 18:57:00,
2013-08-31 15:12:00,70.3,63.0,29.81,SW,233,2.0,-999.0,77,-99.99,,,0.00,weatherlink.com 1.10,2013-08-31 19:12:00,
2013-08-31 15:27:00,71.1,63.0,29.80,West,261,9.0,-999.0,75,-99.99,,,0.00,weatherlink.com 1.10,2013-08-31 19:27:00,
2013-08-31 15:42:00,74.2,64.0,29.80,SW,221,7.0,-999.0,70,-99.99,,,0.00,weatherlink.com 1.10,2013-08-31 19:42:00,
2013-08-31 15:57:00,73.1,65.0,29.79,WSW,255,5.0,-999.0,75,-99.99,,,0.00,weatherlink.com 1.10,2013-08-31 19:57:00,
2013-08-31 16:12:00,73.4,65.0,29.79,SW,225,7.0,-999.0,75,-99.99,,,0.00,weatherlink.com 1.10,2013-08-31 20:12:00,
2013-08-31 16:27:00,70.0,64.0,29.79,SW,225,6.0,-999.0,80,-99.99,,,0.00,weatherlink.com 1.10,2013-08-31 20:27:00,
2013-08-31 16:42:00,70.5,64.0,29.79,SW,219,8.0,-999.0,80,-99.99,,,0.00,weatherlink.com 1.10,2013-08-31 20:42:00,
2013-08-31 16:57:00,69.5,65.0,29.78,WNW,283,8.0,-999.0,84,-99.99,,,0.00,weatherlink.com 1.10,2013-08-31 20:57:00,
2013-08-31 17:12:00,68.8,64.0,29.78,SW,225,7.0,-999.0,84,-99.99,,,0.00,weatherlink.com 1.10,2013-08-31 21:12:00,
2013-08-31 17:27:00,71.8,64.0,29.78,SW,215,8.0,-999.0,76,-99.99,,,0.00,weatherlink.com 1.10,2013-08-31 21:27:00,
2013-08-31 17:42:00,71.4,65.0,29.77,West,269,4.0,-999.0,79,-99.99,,,0.00,weatherlink.com 1.10,2013-08-31 21:42:00,
2013-08-31 17:57:00,71.0,64.0,29.77,SW,227,7.0,-999.0,78,-99.99,,,0.00,weatherlink.com 1.10,2013-08-31 21:57:00,
2013-08-31 18:12:00,71.2,64.0,29.77,West,263,3.0,-999.0,77,-99.99,,,0.00,weatherlink.com 1.10,2013-08-31 22:12:00,
2013-08-31 18:27:00,71.4,63.0,29.77,WSW,242,1.0,-999.0,74,-99.99,,,0.00,weatherlink.com 1.10,2013-08-31 22:27:00,
2013-08-31 18:42:00,71.0,63.0,29.78,WSW,251,4.0,-999.0,76,-99.99,,,0.00,weatherlink.com 1.10,2013-08-31 22:42:00,
2013-08-31 18:57:00,69.5,63.0,29.79,SW,231,4.0,-999.0,81,-99.99,,,0.00,weatherlink.com 1.10,2013-08-31 22:57:00,
2013-08-31 19:12:00,68.3,63.0,29.80,SW,236,2.0,-999.0,84,-99.99,,,0.00,weatherlink.com 1.10,2013-08-31 23:12:00,
2013-08-31 19:27:00,66.6,63.0,29.81,WSW,246,2.0,-999.0,88,-99.99,,,0.00,weatherlink.com 1.10,2013-08-31 23:27:00,
2013-08-31 19:42:00,66.3,63.0,29.82,SSE,167,2.0,-999.0,90,-99.99,,,0.00,weatherlink.com 1.10,2013-08-31 23:42:00,
2013-08-31 19:57:00,65.6,63.0,29.81,South,174,2.0,-999.0,92,-99.99,,,0.00,weatherlink.com 1.10,2013-08-31 23:57:00,
2013-08-31 20:12:00,65.0,63.0,29.82,SW,232,5.0,-999.0,92,-99.99,,,0.00,weatherlink.com 1.10,2013-09-01 00:12:00,
2013-08-31 20:27:00,64.1,62.0,29.82,SW,233,4.0,-999.0,93,-99.99,,,0.00,weatherlink.com 1.10,2013-09-01 00:27:00,
2013-08-31 20:42:00,63.3,61.0,29.82,SW,229,4.0,-999.0,92,-99.99,,,0.00,weatherlink.com 1.10,2013-09-01 00:42:00,
2013-08-31 20:57:00,63.0,60.0,29.82,SSW,212,8.0,-999.0,89,-99.99,,,0.00,weatherlink.com 1.10,2013-09-01 00:57:00,
2013-08-31 21:12:00,62.5,58.0,29.82,SW,222,4.0,-999.0,86,-99.99,,,0.00,weatherlink.com 1.10,2013-09-01 01:12:00,
2013-08-31 21:27:00,62.2,58.0,29.82,SW,215,6.0,-999.0,86,-99.99,,,0.00,weatherlink.com 1.10,2013-09-01 01:27:00,
2013-08-31 21:42:00,62.1,58.0,29.82,SW,215,7.0,-999.0,87,-99.99,,,0.00,weatherlink.com 1.10,2013-09-01 01:42:00,
2013-08-31 21:57:00,61.8,58.0,29.82,SW,227,6.0,-999.0,87,-99.99,,,0.00,weatherlink.com 1.10,2013-09-01 01:57:00,
2013-08-31 22:12:00,61.5,59.0,29.82,SW,223,9.0,-999.0,91,-99.99,,,0.00,weatherlink.com 1.10,2013-09-01 02:12:00,
2013-08-31 22:27:00,61.2,59.0,29.82,WSW,240,7.0,-999.0,92,-99.99,,,0.00,weatherlink.com 1.10,2013-09-01 02:27:00,
2013-08-31 22:42:00,61.3,59.0,29.82,SW,234,7.0,-999.0,93,-99.99,,,0.00,weatherlink.com 1.10,2013-09-01 02:42:00,
2013-08-31 22:57:00,61.3,59.0,29.82,SW,234,6.0,-999.0,93,-99.99,,,0.00,weatherlink.com 1.10,2013-09-01 02:57:00,
2013-08-31 23:12:00,61.2,59.0,29.82,SW,223,6.0,-999.0,93,-99.99,,,0.00,weatherlink.com 1.10,2013-09-01 03:12:00,
2013-08-31 23:27:00,61.4,59.0,29.81,SW,234,2.0,-999.0,93,-99.99,,,0.00,weatherlink.com 1.10,2013-09-01 03:27:00,
2013-08-31 23:42:00,61.5,60.0,29.82,WSW,240,4.0,-999.0,93,-99.99,,,0.00,weatherlink.com 1.10,2013-09-01 03:42:00,
2013-08-31 23:57:00,61.6,59.0,29.82,SSW,213,8.0,-999.0,92,-99.99,,,0.00,weatherlink.com 1.10,2013-09-01 03:57:00,